Tooele, Utah
Current Conditions -  °F | °C
As of 12:53 PM on Thursday 18 Dec 2014 (Local Time) from KSLC Reporting Station
Few Clouds Few Clouds  
Wind Chill: 38°   Ceiling: Unl
Heat Index: 42°   Visibility: 10mi
Dew Point: 32°   Wind: 7mph
Humidity: 67%   Direction: 140°SE
Pressure: 30.13"   Gusts: NA
Location:  40.53°N, 112.29°W
Report Text: KSLC 181953Z 14006KT 10SM FEW020 FEW035TCU FEW090 06/00 A3013 RMK AO2 SLP206 TCU NW-NE AND DSNT SE AND SW SH DSNT SE T00560000
Loading
Personal Weather Stations






























Interactive Weather Map New forecast layout! Learn more

10-Day Weather Forecast

Advertisements
Track Severe Weather on mobile